Airfield :
LOGIN :

Register | Disclaimer

   EN    FR    IT 

 










Legend :    VFR   Marginal VFR   IFR   Intensive IFR   Very Intensive IFR
Visi :
Ceiling :
>= 8 km
>= 3000ft
5 to 8 km
1000 to 3000 ft
1500m to 5 km
500 to 1000 ft
800 to 1500m
200 to 500 ft
< 800m
< 200 ft
Symbols :   Thunderstorms  Fog  Heavy snow  Heavy precipitations  Wind > 20 kt
SIGMETs :     Misc.  Thunderstorms  Icing  Turbulence  Mountain Waves  Volcanic Ashes






- Airport Elevation : 249 ft


EGOS - RAF Shawbury

CURRENT METAR :
  • 210950Z 11004KT 6000 -RADZ FEW005 OVC070 14/13 Q0992 TEMPO 4000 RADZ SCT010 RMK WHT TEMPO GRN

EXPIRED METARs :
  • 210920Z 11005KT 5000 -RADZ FEW005 SCT010 OVC060 14/13 Q0993 TEMPO 4000 RADZ RMK GRN TEMPO GRN
  • 210850Z 10003KT 5000 -RADZ BKN010 OVC020 14/13 Q0993 TEMPO 4000 RADZ RMK GRN TEMPO GRN
  • 210820Z 11003KT 5000 RADZ BKN010 14/13 Q0993 TEMPO 4000 RADZ RMK GRN TEMPO GRN
  • 210750Z 12003KT 7000 -RADZ BKN010 BKN040 13/13 Q0993 TEMPO 4000 RADZ RMK GRN TEMPO GRN
  • 210720Z 12005KT 9999 7000N -RADZ FEW010 SCT020 BKN050 13/13 Q0993 TEMPO 4000 RADZ SCT008 RMK WHT TEMPO GRN
  • 210650Z AUTO 13005KT 9999 -RA BKN050/// BKN100/// 14/13 Q0993

TAF AMD TAF EGOS
Valid from the 21 at 10:00 until the 21 at 18:00 UTC


210956Z 2110/2118 14005KT 7000 -RADZ FEW009 BKN040
TEMPO 2110/2112 4000 -RADZ SCT008
BECMG 2112/2114 21008KT 9999 SCT015
PROB30
TEMPO 2115/2118 7000 -RA SCT012



MET'MAP, your aeronautical weather chart ! - Copyright ORBIFLY December 2007 - Disclaimer

ORBIFLY MET'MAP TEAM :

Programming & Development : Alexandra Zaïnal
Concept & original design : Baudouin d'Aumeries
Assistance for programming : Marc-Olivier Méhu
Technical & hardware support : Manuel Goepfert

Contact : metmap@orbifly.com




SOURCES & CREDITS :

   NOAA